Flight Track Log - Related Links

Times and Time Zones

All times are in EDT time to prevent confusion due to time zone crossing. See the ASA10 flight status page for this flight to view local times or setup timezone preferences in your user account.

Time Position Orientation Groundspeed Altitude Reporting Facility
EDT Latitude Longitude Course Direction KTS MPH feet Rate Location/Type
Sat 01:00:08 AM 47.4700 -122.3075 359° North 171 197 1,400  Level Seattle Center
Sat 01:01:24 AM 47.5408 -122.3086 359° North 217 250 3,600 2,162 Climbing Seattle Center
Sat 01:02:24 AM 47.5986 -122.3550 332° Northwest 242 278 6,300 2,628 Climbing Seattle Center
Sat 01:03:25 AM 47.6381 -122.4414 304° West 265 305 8,900 2,281 Climbing Seattle Center
Sat 01:04:25 AM 47.5772 -122.4944 210° Southwest 285 328 10,900 1,587 Climbing Seattle Center
Sat 01:05:26 AM 47.4928 -122.4422 157° South 336 387 12,100 1,623 Climbing Seattle Center
Sat 01:06:27 AM 47.3967 -122.3928 161° South 372 428 14,200 2,132 Climbing Seattle Center
Sat 01:07:27 AM 47.2981 -122.3403 160° South 380 437 16,400 1,835 Climbing Seattle Center
Sat 01:08:28 AM 47.1933 -122.2856 160° South 400 460 17,900 1,636 Climbing Seattle Center
Sat 01:09:28 AM 47.0911 -122.2344 161° South 416 479 19,700 1,785 Climbing Seattle Center
Sat 01:10:29 AM 46.9789 -122.1753 160° South 431 496 21,500 1,636 Climbing Seattle Center
Sat 01:11:29 AM 46.8639 -122.1144 160° South 439 505 23,000 1,636 Climbing Seattle Center
Sat 01:12:30 AM 46.7203 -122.0419 161° South 455 524 24,800 1,525 Climbing Seattle Center
Sat 01:13:31 AM 46.6083 -121.9547 152° Southeast 465 535 26,100 1,289 Climbing Seattle Center
Sat 01:14:31 AM 46.5419 -121.7981 122° Southeast 459 528 27,400 1,190 Climbing Seattle Center
Sat 01:15:32 AM 46.4772 -121.6367 120° Southeast 467 537 28,500 992 Climbing Seattle Center
Sat 01:16:32 AM 46.4175 -121.4836 119° Southeast 474 545 29,400 1,140 Climbing Seattle Center
Sat 01:17:33 AM 46.3500 -121.3169 120° Southeast 480 552 30,800 1,240 Climbing Seattle Center
Sat 01:18:33 AM 46.2833 -121.1511 120° Southeast 477 549 31,900 1,091 Climbing Seattle Center
Sat 01:19:34 AM 46.2158 -120.9867 121° Southeast 476 548 33,000 1,091 Climbing Seattle Center
Sat 01:20:34 AM 46.1492 -120.8244 121° Southeast 473 544 34,100 942 Climbing Seattle Center
Sat 01:21:35 AM 46.0831 -120.6617 120° Southeast 470 541 34,900 446 Climbing Seattle Center
Sat 01:22:35 AM 46.0153 -120.4992 121° Southeast 473 544 35,000 50 Climbing Seattle Center
Sat 01:23:36 AM 45.9333 -120.3036 121° Southeast 475 547 35,000  Level Seattle Center
Sat 01:24:36 AM 45.8650 -120.1406 121° Southeast 477 549 35,000  Level Seattle Center
Sat 01:25:37 AM 45.7967 -119.9786 121° Southeast 475 547 35,000  Level Seattle Center
Sat 01:26:37 AM 45.7269 -119.8161 122° Southeast 477 549 35,000  Level Seattle Center
Sat 01:27:38 AM 45.6586 -119.6556 121° Southeast 473 544 35,000  Level Seattle Center
Sat 01:28:38 AM 45.5903 -119.4975 122° Southeast 468 539 35,000  Level Seattle Center
Sat 01:29:39 AM 45.5214 -119.3372 121° Southeast 471 542 35,000  Level Seattle Center
Sat 01:30:39 AM 45.4517 -119.1783 122° Southeast 472 543 35,000  Level Seattle Center
Sat 01:31:40 AM 45.3825 -119.0189 122° Southeast 472 543 35,000  Level Seattle Center
Sat 01:32:40 AM 45.3131 -118.8603 122° Southeast 471 542 35,000  Level Seattle Center
Sat 01:33:41 AM 45.2422 -118.7022 122° Southeast 474 545 35,000  Level Seattle Center
Sat 01:34:41 AM 45.1731 -118.5464 122° Southeast 469 540 35,000  Level Seattle Center
Sat 01:35:42 AM 45.1053 -118.3933 122° Southeast 461 531 35,000  Level Seattle Center
Sat 01:36:19 AM 45.0619 -118.3008 124° Southeast 462 532 35,000  Level Salt Lake Center
Sat 01:37:20 AM 44.9933 -118.1483 122° Southeast 462 532 35,000  Level Salt Lake Center
Sat 01:38:21 AM 44.9167 -117.9800 123° Southeast 461 531 35,000  Level Salt Lake Center
Sat 01:39:22 AM 44.8508 -117.8344 123° Southeast 461 531 35,000  Level Salt Lake Center
Sat 01:40:22 AM 44.7933 -117.6794 118° Southeast 465 535 35,000  Level Salt Lake Center
Sat 01:41:23 AM 44.7303 -117.4947 116° Southeast 470 541 35,000  Level Salt Lake Center
Sat 01:42:24 AM 44.6742 -117.3375 117° Southeast 472 543 35,000  Level Salt Lake Center
Sat 01:43:24 AM 44.6178 -117.1808 117° Southeast 471 542 35,000  Level Salt Lake Center
Sat 01:44:25 AM 44.5544 -116.9981 116° Southeast 468 539 35,000  Level Salt Lake Center
Sat 01:45:26 AM 44.5197 -116.8319 106° East 465 535 35,000  Level Salt Lake Center
Sat 01:46:27 AM 44.4856 -116.6656 106° East 466 536 35,000  Level Salt Lake Center
Sat 01:47:27 AM 44.4453 -116.4717 106° East 466 536 35,000  Level Salt Lake Center
Sat 01:48:28 AM 44.4094 -116.3064 107° East 467 537 35,000  Level Salt Lake Center
Sat 01:49:29 AM 44.3742 -116.1414 107° East 479 551 35,000  Level Salt Lake Center
Sat 01:50:29 AM 44.3353 -115.9478 106° East 472 543 35,000  Level Salt Lake Center
Sat 01:51:30 AM 44.2983 -115.7789 107° East 476 548 35,000  Level Salt Lake Center
Sat 01:52:31 AM 44.2556 -115.5822 107° East 475 547 35,000  Level Salt Lake Center
Sat 01:53:31 AM 44.2186 -115.4136 107° East 474 545 35,000  Level Salt Lake Center
Sat 01:54:32 AM 44.1806 -115.2447 107° East 476 548 35,000  Level Salt Lake Center
Sat 01:55:33 AM 44.1372 -115.0481 107° East 477 549 35,000  Level Salt Lake Center
Sat 01:56:34 AM 44.1008 -114.8808 107° East 475 547 35,000  Level Salt Lake Center
Sat 01:57:35 AM 44.0628 -114.7128 107° East 475 547 35,000  Level Salt Lake Center
Sat 01:58:35 AM 44.0178 -114.5158 108° East 478 550 35,000  Level Salt Lake Center
Sat 01:59:36 AM 43.9772 -114.3461 108° East 482 555 35,000  Level Salt Lake Center
Sat 02:00:36 AM 43.9369 -114.1739 108° East 488 562 35,000  Level Salt Lake Center
Sat 02:01:37 AM 43.8894 -113.9728 108° East 492 566 35,000  Level Salt Lake Center
Sat 02:02:38 AM 43.8500 -113.8014 108° East 491 565 35,000  Level Salt Lake Center
Sat 02:03:38 AM 43.8089 -113.6278 108° East 495 570 35,000  Level Salt Lake Center
Sat 02:04:39 AM 43.7597 -113.4269 109° East 495 570 35,000  Level Salt Lake Center
Sat 02:05:40 AM 43.7186 -113.2567 108° East 491 565 35,000  Level Salt Lake Center
Sat 02:06:40 AM 43.6775 -113.0856 108° East 492 566 35,000  Level Salt Lake Center
Sat 02:07:41 AM 43.6275 -112.8853 109° East 493 567 35,000  Level Salt Lake Center
Sat 02:08:42 AM 43.5853 -112.7153 109° East 492 566 35,000  Level Salt Lake Center
Sat 02:09:42 AM 43.5439 -112.5486 109° East 485 558 35,000  Level Salt Lake Center
Sat 02:10:43 AM 43.4944 -112.3547 109° East 482 555 35,000  Level Salt Lake Center
Sat 02:11:44 AM 43.4522 -112.1872 109° East 486 559 35,000  Level Salt Lake Center
Sat 02:12:45 AM 43.4086 -112.0217 110° East 483 556 35,000  Level Salt Lake Center
Sat 02:13:45 AM 43.3594 -111.8264 109° East 486 559 35,000  Level Salt Lake Center
Sat 02:14:46 AM 43.3164 -111.6628 110° East 480 552 35,000  Level Salt Lake Center
Sat 02:15:46 AM 43.2742 -111.4997 110° East 476 548 35,000  Level Salt Lake Center
Sat 02:16:47 AM 43.2250 -111.3131 110° East 470 541 35,000  Level Salt Lake Center
Sat 02:17:48 AM 43.1819 -111.1500 110° East 476 548 35,000  Level Salt Lake Center
Sat 02:18:48 AM 43.1389 -110.9886 110° East 474 545 35,000  Level Salt Lake Center
Sat 02:19:49 AM 43.0869 -110.7994 111° Southeast 476 548 35,000  Level Salt Lake Center
Sat 02:20:50 AM 43.0442 -110.6378 110° East 474 545 35,000  Level Salt Lake Center
Sat 02:21:50 AM 42.9994 -110.4800 111° Southeast 469 540 35,000  Level Salt Lake Center
Sat 02:22:51 AM 42.9481 -110.2922 110° East 473 544 35,000  Level Salt Lake Center
Sat 02:23:52 AM 42.9031 -110.1297 111° Southeast 477 549 35,000  Level Salt Lake Center
Sat 02:24:52 AM 42.8581 -109.9667 111° Southeast 481 554 35,000  Level Salt Lake Center
Sat 02:25:53 AM 42.8069 -109.7786 110° East 482 555 35,000  Level Salt Lake Center
Sat 02:26:54 AM 42.7606 -109.6142 111° Southeast 485 558 35,000  Level Salt Lake Center
Sat 02:27:54 AM 42.7161 -109.4550 111° Southeast 476 548 35,000  Level Salt Lake Center
Sat 02:28:55 AM 42.6633 -109.2794 112° Southeast 458 527 35,000  Level Salt Lake Center
Sat 02:29:56 AM 42.6197 -109.1244 111° Southeast 458 527 35,000  Level Salt Lake Center
Sat 02:30:56 AM 42.5744 -108.9681 111° Southeast 462 532 35,000  Level Salt Lake Center
Sat 02:31:57 AM 42.5222 -108.7867 111° Southeast 462 532 35,000  Level Salt Lake Center
Sat 02:32:57 AM 42.4767 -108.6311 112° Southeast 464 534 35,000  Level Salt Lake Center
Sat 02:33:58 AM 42.4303 -108.4739 112° Southeast 467 537 35,000  Level Salt Lake Center
Sat 02:34:59 AM 42.3758 -108.2886 112° Southeast 472 543 35,000  Level Salt Lake Center
Sat 02:35:59 AM 42.3297 -108.1317 112° Southeast 471 542 35,000  Level Salt Lake Center
Sat 02:37:00 AM 42.2819 -107.9717 112° Southeast 476 548 35,000  Level Salt Lake Center
Sat 02:38:01 AM 42.2261 -107.7867 112° Southeast 476 548 35,000  Level Salt Lake Center
Sat 02:39:01 AM 42.1775 -107.6297 113° Southeast 475 547 35,000  Level Salt Lake Center
Sat 02:39:49 AM 42.1342 -107.4947 113° Southeast 481 554 35,000  Level Denver Center
Sat 02:40:50 AM 42.0864 -107.3378 112° Southeast 476 548 35,000  Level Denver Center
Sat 02:41:50 AM 42.0369 -107.1811 113° Southeast 475 547 35,000  Level Denver Center
Sat 02:42:51 AM 41.9792 -106.9983 113° Southeast 475 547 35,000  Level Denver Center
Sat 02:43:51 AM 41.9319 -106.8425 112° Southeast 472 543 35,000  Level Denver Center
Sat 02:44:52 AM 41.8825 -106.6900 113° Southeast 465 535 35,000  Level Denver Center
Sat 02:45:52 AM 41.8247 -106.5075 113° Southeast 465 535 35,000  Level Denver Center
Sat 02:46:53 AM 41.7764 -106.3564 113° Southeast 463 533 35,000  Level Denver Center
Sat 02:47:54 AM 41.7267 -106.2047 114° Southeast 466 536 35,000  Level Denver Center
Sat 02:48:54 AM 41.6781 -106.0539 113° Southeast 463 533 35,000  Level Denver Center
Sat 02:49:55 AM 41.6211 -105.8783 113° Southeast 463 533 35,000  Level Denver Center
Sat 02:50:55 AM 41.5722 -105.7300 114° Southeast 459 528 35,000  Level Denver Center
Sat 02:51:56 AM 41.5236 -105.5786 113° Southeast 463 533 35,000  Level Denver Center
Sat 02:52:56 AM 41.4650 -105.4022 114° Southeast 467 537 35,000  Level Denver Center
Sat 02:53:57 AM 41.4144 -105.2528 114° Southeast 466 536 35,000  Level Denver Center
Sat 02:54:57 AM 41.3639 -105.1003 114° Southeast 467 537 35,000  Level Denver Center
Sat 02:55:58 AM 41.3047 -104.9239 114° Southeast 468 539 35,000  Level Denver Center
Sat 02:56:58 AM 41.2533 -104.7739 114° Southeast 469 540 35,000  Level Denver Center
Sat 02:57:59 AM 41.2006 -104.6200 114° Southeast 475 547 35,000  Level Denver Center
Sat 02:58:59 AM 41.1408 -104.4417 114° Southeast 474 545 35,000  Level Denver Center
Sat 03:00:00 AM 41.0903 -104.2953 115° Southeast 465 535 35,000  Level Denver Center
Sat 03:01:00 AM 41.0414 -104.1567 115° Southeast 446 513 35,000  Level Denver Center
Sat 03:02:01 AM 40.9822 -103.9850 114° Southeast 448 516 35,000  Level Denver Center
Sat 03:03:01 AM 40.9286 -103.8333 115° Southeast 453 521 35,000  Level Denver Center
Sat 03:04:02 AM 40.8756 -103.6819 115° Southeast 454 522 35,000  Level Denver Center
Sat 03:05:02 AM 40.8214 -103.5292 115° Southeast 457 526 35,000  Level Denver Center
Sat 03:06:03 AM 40.7672 -103.3769 115° Southeast 459 528 35,000  Level Denver Center
Sat 03:07:03 AM 40.7114 -103.2236 116° Southeast 461 531 35,000  Level Denver Center
Sat 03:08:04 AM 40.6564 -103.0703 115° Southeast 462 532 35,000  Level Denver Center
Sat 03:09:05 AM 40.6011 -102.9169 115° Southeast 463 533 35,000  Level Denver Center
Sat 03:10:05 AM 40.5450 -102.7619 115° Southeast 468 539 35,000  Level Denver Center
Sat 03:11:06 AM 40.4928 -102.6203 116° Southeast 472 543 35,000  Level Denver Center
Sat 03:12:06 AM 40.4303 -102.4469 115° Southeast 472 543 35,000 -198 Level Denver Center
Sat 03:13:07 AM 40.3753 -102.2981 116° Southeast 474 545 34,600 -446 Descending Denver Center
Sat 03:14:07 AM 40.3203 -102.1506 116° Southeast 473 544 34,100 -793 Descending Denver Center
Sat 03:15:08 AM 40.2564 -101.9808 116° Southeast 469 540 33,000 -545 Descending Denver Center
Sat 03:16:08 AM 40.2008 -101.8319 116° Southeast 475 547 33,000  Level Denver Center
Sat 03:17:09 AM 40.1447 -101.6844 116° Southeast 475 547 33,000  Level Denver Center
Sat 03:18:10 AM 40.0797 -101.5114 116° Southeast 478 550 33,000  Level Denver Center
Sat 03:19:10 AM 40.0233 -101.3633 116° Southeast 478 550 33,000  Level Denver Center
Sat 03:20:11 AM 39.9658 -101.2153 117° Southeast 481 554 33,000  Level Denver Center
Sat 03:21:11 AM 39.8986 -101.0417 117° Southeast 483 556 33,000  Level Denver Center
Sat 03:22:12 AM 39.8394 -100.8897 117° Southeast 491 565 33,000  Level Denver Center
Sat 03:23:13 AM 39.7711 -100.7139 117° Southeast 490 564 33,000  Level Denver Center
Sat 03:24:13 AM 39.7131 -100.5656 117° Southeast 486 559 33,000  Level Denver Center
Sat 03:25:14 AM 39.6564 -100.4208 117° Southeast 474 545 33,000  Level Denver Center
Sat 03:26:14 AM 39.5906 -100.2558 117° Southeast 468 539 33,000  Level Denver Center
Sat 03:27:15 AM 39.5336 -100.1142 117° Southeast 464 534 33,000  Level Denver Center
Sat 03:28:16 AM 39.4772 -99.9706 117° Southeast 466 536 33,000  Level Denver Center
Sat 03:29:16 AM 39.4094 -99.8017 117° Southeast 473 544 33,000  Level Denver Center
Sat 03:30:17 AM 39.3517 -99.6611 118° Southeast 467 537 33,000  Level Denver Center
Sat 03:31:17 AM 39.2939 -99.5175 117° Southeast 470 541 33,000  Level Denver Center
Sat 03:32:18 AM 39.2269 -99.3519 118° Southeast 468 539 33,000  Level Denver Center
Sat 03:33:19 AM 39.1667 -99.2078 118° Southeast 468 539 33,000  Level Denver Center
Sat 03:34:19 AM 39.1089 -99.0667 118° Southeast 465 535 33,000  Level Denver Center
Sat 03:35:20 AM 39.0489 -98.9200 118° Southeast 466 536 33,000  Level Denver Center
Sat 03:36:20 AM 38.9886 -98.7747 118° Southeast 462 532 33,000  Level Denver Center
Sat 03:37:47 AM 38.8936 -98.5514 119° Southeast 466 536 33,000  Level Kansas City Center
Sat 03:38:47 AM 38.8331 -98.4022 117° Southeast 470 541 33,000  Level Kansas City Center
Sat 03:39:48 AM 38.7700 -98.2564 119° Southeast 468 539 33,000  Level Kansas City Center
Sat 03:40:48 AM 38.7086 -98.1103 118° Southeast 465 535 33,000  Level Kansas City Center
Sat 03:41:48 AM 38.6461 -97.9647 119° Southeast 465 535 33,000  Level Kansas City Center
Sat 03:42:49 AM 38.5844 -97.8203 119° Southeast 461 531 33,000  Level Kansas City Center
Sat 03:43:49 AM 38.5222 -97.6753 119° Southeast 463 533 33,000  Level Kansas City Center
Sat 03:44:50 AM 38.4594 -97.5306 119° Southeast 463 533 33,000 496 Level Kansas City Center
Sat 03:45:50 AM 38.3978 -97.3872 119° Southeast 460 529 34,000 1,050 Climbing Kansas City Center
Sat 03:46:50 AM 38.3361 -97.2475 119° Southeast 451 519 35,100 1,041 Climbing Kansas City Center
Sat 03:47:51 AM 38.2756 -97.1089 119° Southeast 447 514 36,100 942 Climbing Kansas City Center
Sat 03:48:51 AM 38.2122 -96.9656 119° Southeast 451 519 37,000 446 Climbing Kansas City Center
Sat 03:49:52 AM 38.1528 -96.8294 119° Southeast 450 518 37,000  Level Kansas City Center
Sat 03:50:52 AM 38.0897 -96.6897 120° Southeast 453 521 37,000  Level Kansas City Center
Sat 03:51:53 AM 38.0278 -96.5486 119° Southeast 457 526 37,000  Level Kansas City Center
Sat 03:52:53 AM 37.9647 -96.4094 120° Southeast 454 522 37,000  Level Kansas City Center
Sat 03:53:53 AM 37.9019 -96.2706 120° Southeast 455 524 37,000  Level Kansas City Center
Sat 03:54:54 AM 37.8394 -96.1328 120° Southeast 450 518 37,000  Level Kansas City Center
Sat 03:55:54 AM 37.7794 -96.0017 120° Southeast 443 510 37,000  Level Kansas City Center
Sat 03:56:55 AM 37.7169 -95.8642 120° Southeast 448 516 37,000  Level Kansas City Center
Sat 03:57:55 AM 37.6542 -95.7269 120° Southeast 449 517 37,000  Level Kansas City Center
Sat 03:58:56 AM 37.5919 -95.5900 120° Southeast 448 516 37,000  Level Kansas City Center
Sat 03:59:59 AM 37.5278 -95.4531 121° Southeast 450 518 37,000  Level Kansas City Center
Sat 04:00:59 AM 37.4633 -95.3133 120° Southeast 455 524 37,000  Level Kansas City Center
Sat 04:02:00 AM 37.3986 -95.1761 121° Southeast 456 525 37,000  Level Kansas City Center
Sat 04:03:00 AM 37.3342 -95.0372 120° Southeast 456 525 37,000  Level Kansas City Center
Sat 04:04:01 AM 37.2700 -94.8997 120° Southeast 456 525 37,000  Level Kansas City Center
Sat 04:05:01 AM 37.2039 -94.7611 121° Southeast 459 528 37,000  Level Kansas City Center
Sat 04:06:02 AM 37.1383 -94.6231 121° Southeast 459 528 37,000  Level Kansas City Center
Sat 04:07:02 AM 37.0728 -94.4856 121° Southeast 458 527 37,000  Level Kansas City Center
Sat 04:08:03 AM 37.0072 -94.3475 121° Southeast 459 528 37,000  Level Kansas City Center
Sat 04:09:04 AM 36.9417 -94.2103 121° Southeast 458 527 37,000  Level Kansas City Center
Sat 04:10:04 AM 36.8753 -94.0736 121° Southeast 457 526 37,000  Level Kansas City Center
Sat 04:11:05 AM 36.8078 -93.9356 121° Southeast 460 529 37,000  Level Kansas City Center
Sat 04:12:05 AM 36.7394 -93.7978 122° Southeast 463 533 37,000  Level Kansas City Center
Sat 04:13:06 AM 36.6711 -93.6567 121° Southeast 466 536 37,000  Level Kansas City Center
Sat 04:14:07 AM 36.6036 -93.5192 121° Southeast 466 536 37,000  Level Kansas City Center
Sat 04:15:07 AM 36.5364 -93.3797 121° Southeast 467 537 37,000  Level Kansas City Center
Sat 04:16:08 AM 36.4697 -93.2417 121° Southeast 467 537 37,000  Level Kansas City Center
Sat 04:17:08 AM 36.4017 -93.1064 122° Southeast 463 533 37,000  Level Kansas City Center
Sat 04:17:55 AM 36.3456 -92.9981 123° Southeast 463 533 37,000  Level Memphis Center
Sat 04:18:55 AM 36.2794 -92.8594 121° Southeast 463 533 37,000  Level Memphis Center
Sat 04:19:55 AM 36.2111 -92.7286 123° Southeast 463 533 37,000  Level Memphis Center
Sat 04:20:55 AM 36.1450 -92.5931 121° Southeast 463 533 37,000  Level Memphis Center
Sat 04:21:55 AM 36.0764 -92.4578 122° Southeast 463 533 37,000  Level Memphis Center
Sat 04:22:55 AM 36.0097 -92.3253 122° Southeast 463 533 37,000  Level Memphis Center
Sat 04:23:55 AM 35.9408 -92.1903 122° Southeast 463 533 37,000  Level Memphis Center
Sat 04:24:55 AM 35.8719 -92.0556 122° Southeast 463 533 37,000  Level Memphis Center
Sat 04:25:55 AM 35.8047 -91.9236 122° Southeast 463 533 37,000  Level Memphis Center
Sat 04:26:55 AM 35.7294 -91.7789 123° Southeast 458 527 37,000  Level Memphis Center
Sat 04:27:55 AM 35.6600 -91.6422 122° Southeast 464 534 37,000  Level Memphis Center
Sat 04:28:55 AM 35.5903 -91.5111 123° Southeast 464 534 37,000  Level Memphis Center
Sat 04:29:55 AM 35.5267 -91.3878 122° Southeast 464 534 37,000  Level Memphis Center
Sat 04:30:55 AM 35.4506 -91.2439 123° Southeast 464 534 37,000  Level Memphis Center
Sat 04:31:55 AM 35.3786 -91.1058 123° Southeast 464 534 37,000  Level Memphis Center
Sat 04:32:55 AM 35.3083 -90.9728 123° Southeast 464 534 37,000  Level Memphis Center
Sat 04:33:55 AM 35.2358 -90.8375 123° Southeast 464 534 37,000  Level Memphis Center
Sat 04:34:55 AM 35.1656 -90.7050 123° Southeast 470 541 37,000  Level Memphis Center
Sat 04:35:55 AM 35.0928 -90.5653 122° Southeast 470 541 37,000  Level Memphis Center
Sat 04:36:55 AM 35.0197 -90.4306 123° Southeast 470 541 37,000  Level Memphis Center
Sat 04:37:55 AM 34.9447 -90.2964 124° Southeast 480 552 37,000  Level Memphis Center
Sat 04:38:55 AM 34.8694 -90.1572 123° Southeast 480 552 37,000  Level Memphis Center
Sat 04:39:55 AM 34.7942 -90.0258 125° Southeast 479 551 37,000  Level Memphis Center
Sat 04:40:55 AM 34.7122 -89.8847 125° Southeast 501 577 37,000  Level Memphis Center
Sat 04:41:55 AM 34.6386 -89.7411 122° Southeast 507 583 37,000  Level Memphis Center
Sat 04:42:55 AM 34.5647 -89.6006 123° Southeast 501 577 37,000  Level Memphis Center
Sat 04:43:55 AM 34.4886 -89.4600 123° Southeast 501 577 37,000  Level Memphis Center
Sat 04:44:55 AM 34.4147 -89.3250 124° Southeast 496 571 37,000  Level Memphis Center
Sat 04:45:55 AM 34.3383 -89.1875 124° Southeast 496 571 37,000  Level Memphis Center
Sat 04:46:55 AM 34.2703 -89.0653 124° Southeast 496 571 37,000  Level Memphis Center
Sat 04:47:55 AM 34.1917 -88.9258 124° Southeast 496 571 37,000  Level Memphis Center
Sat 04:48:55 AM 34.1106 -88.7817 124° Southeast 483 556 37,000  Level Memphis Center
Sat 04:49:55 AM 34.0314 -88.6453 125° Southeast 488 562 37,000  Level Memphis Center
Sat 04:50:55 AM 33.9544 -88.5092 124° Southeast 488 562 37,000  Level Memphis Center
Sat 04:52:44 AM 33.8139 -88.2567 124° Southeast 505 581 37,000  Level Atlanta Center
Sat 04:53:44 AM 33.7369 -88.1206 124° Southeast 500 575 37,000  Level Atlanta Center
Sat 04:54:44 AM 33.6561 -87.9819 125° Southeast 500 575 37,000  Level Atlanta Center
Sat 04:55:44 AM 33.5769 -87.8436 124° Southeast 500 575 37,000  Level Atlanta Center
Sat 04:56:44 AM 33.4975 -87.7081 125° Southeast 505 581 37,000  Level Atlanta Center
Sat 04:57:44 AM 33.4200 -87.5731 124° Southeast 505 581 37,000  Level Atlanta Center
Sat 04:58:44 AM 33.3364 -87.4328 125° Southeast 505 581 37,000  Level Atlanta Center
Sat 04:59:44 AM 33.2586 -87.2956 124° Southeast 510 587 37,000  Level Atlanta Center
Sat 05:00:44 AM 33.1786 -87.1586 125° Southeast 510 587 37,000  Level Atlanta Center
Sat 05:01:44 AM 33.1086 -87.0369 124° Southeast 510 587 37,000  Level Atlanta Center
Sat 05:02:44 AM 33.0306 -86.9006 124° Southeast 505 581 37,000  Level Atlanta Center
Sat 05:03:44 AM 32.9458 -86.7642 126° Southeast 505 581 37,000  Level Atlanta Center
Sat 05:04:44 AM 32.8694 -86.6306 124° Southeast 505 581 37,000  Level Atlanta Center
Sat 05:05:44 AM 32.7803 -86.5044 130° Southeast 505 581 37,000  Level Atlanta Center
Sat 05:06:44 AM 32.6825 -86.3833 134° Southeast 500 575 37,000  Level Atlanta Center
Sat 05:07:44 AM 32.5886 -86.2650 133° Southeast 495 570 37,000  Level Atlanta Center
Sat 05:08:44 AM 32.4906 -86.1492 135° Southeast 495 570 37,000  Level Atlanta Center
Sat 05:09:44 AM 32.3922 -86.0339 135° Southeast 495 570 37,000  Level Atlanta Center
Sat 05:10:44 AM 32.3022 -85.9139 132° Southeast 495 570 37,000  Level Atlanta Center
Sat 05:13:12 AM 32.0661 -85.6236 134° Southeast 488 562 37,000  Level Jacksonville Center
Sat 05:14:12 AM 31.9744 -85.5131 134° Southeast 483 556 37,000  Level Jacksonville Center
Sat 05:15:12 AM 31.8786 -85.3978 134° Southeast 483 556 37,000  Level Jacksonville Center
Sat 05:16:12 AM 31.7847 -85.2853 134° Southeast 483 556 37,000  Level Jacksonville Center
Sat 05:17:12 AM 31.6889 -85.1731 135° Southeast 483 556 37,000  Level Jacksonville Center
Sat 05:18:12 AM 31.5867 -85.0486 134° Southeast 483 556 37,000  Level Jacksonville Center
Sat 05:19:12 AM 31.4944 -84.9342 133° Southeast 483 556 37,000  Level Jacksonville Center
Sat 05:20:12 AM 31.3981 -84.8203 135° Southeast 489 563 37,000  Level Jacksonville Center
Sat 05:21:12 AM 31.3039 -84.7064 134° Southeast 489 563 37,000  Level Jacksonville Center
Sat 05:22:12 AM 31.2072 -84.5953 135° Southeast 484 557 37,000  Level Jacksonville Center
Sat 05:23:12 AM 31.1147 -84.4844 134° Southeast 484 557 37,000  Level Jacksonville Center
Sat 05:24:12 AM 31.0181 -84.3689 134° Southeast 484 557 37,000  Level Jacksonville Center
Sat 05:25:12 AM 30.9231 -84.2583 135° Southeast 484 557 37,000  Level Jacksonville Center
Sat 05:26:12 AM 30.8283 -84.1458 134° Southeast 484 557 37,000  Level Jacksonville Center
Sat 05:27:12 AM 30.7333 -84.0333 134° Southeast 484 557 37,000  Level Jacksonville Center
Sat 05:28:12 AM 30.6361 -83.9258 136° Southeast 484 557 37,000  Level Jacksonville Center
Sat 05:29:12 AM 30.5472 -83.8164 133° Southeast 484 557 37,000  Level Jacksonville Center
Sat 05:30:12 AM 30.4539 -83.7072 135° Southeast 479 551 37,000  Level Jacksonville Center
Sat 05:31:12 AM 30.3628 -83.6003 135° Southeast 479 551 37,000  Level Jacksonville Center
Sat 05:32:12 AM 30.2672 -83.4914 135° Southeast 479 551 37,000  Level Jacksonville Center
Sat 05:33:12 AM 30.1736 -83.3850 135° Southeast 474 545 37,000  Level Jacksonville Center
Sat 05:34:12 AM 30.0800 -83.2767 135° Southeast 474 545 37,000 -150 Level Jacksonville Center
Sat 05:35:12 AM 29.9822 -83.1683 136° Southeast 474 545 36,700 -650 Descending Jacksonville Center
Sat 05:36:12 AM 29.8864 -83.0603 136° Southeast 481 554 35,700 -1,500 Descending Jacksonville Center
Sat 05:37:12 AM 29.7947 -82.9547 135° Southeast 459 528 33,700 -2,450 Descending Jacksonville Center
Sat 05:38:12 AM 29.7028 -82.8494 135° Southeast 471 542 30,800 -2,550 Descending Jacksonville Center
Sat 05:39:12 AM 29.6150 -82.7517 136° Southeast 451 519 28,600 -2,200 Descending Jacksonville Center
Sat 05:40:12 AM 29.5356 -82.6611 135° Southeast 445 512 26,400 -2,100 Descending Jacksonville Center
Sat 05:41:12 AM 29.4497 -82.5658 136° Southeast 445 512 24,400 -1,950 Descending Jacksonville Center
Sat 05:42:12 AM 29.3703 -82.4756 135° Southeast 427 491 22,500 -1,900 Descending Jacksonville Center
Sat 05:43:12 AM 29.2947 -82.3878 135° Southeast 405 466 20,600 -1,900 Descending Jacksonville Center
Sat 05:44:12 AM 29.2192 -82.3050 136° Southeast 385 443 18,700 -1,800 Descending Jacksonville Center
Sat 05:45:12 AM 29.1458 -82.2244 136° Southeast 373 429 17,000 -1,800 Descending Jacksonville Center
Sat 05:46:12 AM 29.0744 -82.1467 136° Southeast 361 415 15,100 -1,850 Descending Jacksonville Center
Sat 05:47:12 AM 29.0072 -82.0686 135° Southeast 355 409 13,300 -1,750 Descending Jacksonville Center
Sat 05:48:12 AM 28.9397 -81.9958 137° Southeast 343 395 11,600 -1,150 Descending Jacksonville Center
Sat 05:49:12 AM 28.8789 -81.9253 135° Southeast 324 373 11,000 -268 Descending Jacksonville Center
Sat 05:50:04 AM 28.8333 -81.8500 125° Southeast 295 339 11,100 -268 Climbing Orlando TRACON
Sat 05:51:04 AM 28.8000 -81.7667 115° Southeast 306 352 10,500 -1,050 Descending Orlando TRACON
Sat 05:52:04 AM 28.7667 -81.6833 115° Southeast 287 330 9,000 -1,600 Descending Orlando TRACON
Sat 05:53:04 AM 28.7333 -81.6000 115° Southeast 283 326 7,300 -1,150 Descending Orlando TRACON
Sat 05:54:04 AM 28.7000 -81.5333 120° Southeast 249 287 6,700 -1,048 Descending Orlando TRACON
Sat 05:55:10 AM 28.6667 -81.4500 114° Southeast 234 269 5,100 -1,182 Descending Orlando TRACON
Sat 05:56:16 AM 28.6500 -81.3833 106° East 203 234 4,100 -1,000 Descending Orlando TRACON
Sat 05:57:10 AM 28.6167 -81.3500 139° Southeast 181 208 3,100 -889 Descending Orlando TRACON
Sat 05:58:04 AM 28.5833 -81.3333 156° South 152 175 2,500 -684 Descending Orlando TRACON
Sat 05:59:04 AM 28.5333 -81.3333 180° South 151 174 1,800 -750 Descending Orlando TRACON
Sat 06:00:04 AM 28.5000 -81.3333 180° South 146 168 1,000 -800 Descending Orlando TRACON
Sat 06:02:00 AM 28.4294 -81.3090 180° South  Level Estimated
Sat 06:09:00 AM 28.4294 -81.3090 24° Northeast  Level Estimated
Sat 06:10:00 AM 28.4294 -81.3090 24° Northeast  Level Estimated
Sat 06:11:00 AM 28.4294 -81.3090 24° Northeast  Level Estimated
Sat 06:12:00 AM 28.4294 -81.3090 24° Northeast  Level Estimated

Login

Don't have an account? Register now (free) for customized features, flight alerts, and more!